Time;durP1;ratioP1;P1;durP2;ratioP2;P2;SDS_P1;SDS_P2;PMS_P1;PMS_P2;Temp;Humidity;BMP_temperature;BMP_pressure;BME280_temperature;BME280_humidity;BME280_pressure;Samples;Min_cycle;Max_cycle;Signal;HPM_P1;HPM_P2
2021/01/25 00:01:47;;;;;;;10.20;5.50;;;;;;;2.71;54.64;94940.19;5073758;28;20427;-67
2021/01/25 00:04:13;;;;;;;8.77;6.23;;;;;;;2.56;54.60;94929.66;5074317;28;20182;-66
2021/01/25 00:06:39;;;;;;;12.20;6.33;;;;;;;2.47;54.33;94926.25;5072674;28;20455;-66
2021/01/25 00:09:05;;;;;;;11.27;6.10;;;;;;;2.55;54.45;94922.88;5056428;28;20580;-65
2021/01/25 00:11:31;;;;;;;10.63;6.30;;;;;;;2.64;54.69;94918.53;5069922;28;20190;-64
2021/01/25 00:13:57;;;;;;;15.00;6.90;;;;;;;2.65;54.58;94912.41;5073867;28;20427;-65
2021/01/25 00:16:23;;;;;;;13.73;6.80;;;;;;;2.22;55.92;94908.09;5072922;28;20444;-66
2021/01/25 00:18:48;;;;;;;12.47;7.37;;;;;;;2.13;56.55;94899.50;5065118;28;20179;-66
2021/01/25 00:21:14;;;;;;;11.90;8.07;;;;;;;1.88;57.73;94893.44;5073996;28;20185;-67
2021/01/25 00:23:40;;;;;;;10.57;8.20;;;;;;;1.68;58.06;94890.28;5074224;28;20174;-67
2021/01/25 00:26:06;;;;;;;11.70;7.37;;;;;;;1.75;58.25;94885.28;5070625;28;20441;-66
2021/01/25 00:28:31;;;;;;;12.33;8.17;;;;;;;1.97;57.45;94883.91;5068871;28;20247;-65
2021/01/25 00:30:57;;;;;;;11.70;6.93;;;;;;;1.86;57.37;94882.44;5070433;28;20429;-66
2021/01/25 00:33:24;;;;;;;10.37;6.57;;;;;;;1.88;57.36;94885.69;5067029;28;20674;-65
2021/01/25 00:35:50;;;;;;;11.17;7.17;;;;;;;1.73;57.75;94890.59;5071276;28;20213;-64
2021/01/25 00:38:16;;;;;;;7.93;5.97;;;;;;;2.10;56.45;94884.28;5064323;28;20481;-67
2021/01/25 00:40:42;;;;;;;8.67;6.00;;;;;;;2.20;56.17;94893.72;5073764;28;20178;-66
2021/01/25 00:43:08;;;;;;;10.20;6.93;;;;;;;2.34;55.94;94882.75;5065472;28;20566;-66
2021/01/25 00:45:33;;;;;;;12.47;7.13;;;;;;;2.38;55.69;94886.63;5073040;28;20445;-66
2021/01/25 00:47:59;;;;;;;11.13;7.50;;;;;;;2.29;55.88;94883.22;5072574;28;20459;-66
2021/01/25 00:50:25;;;;;;;12.47;6.50;;;;;;;2.36;56.02;94882.59;5072175;28;20711;-65
2021/01/25 00:52:51;;;;;;;21.53;7.10;;;;;;;2.41;56.37;94877.75;5072213;28;20212;-65
2021/01/25 00:55:16;;;;;;;20.20;7.17;;;;;;;2.49;55.67;94882.94;5072710;28;20429;-64
2021/01/25 00:57:42;;;;;;;8.67;6.13;;;;;;;2.59;55.60;94880.19;5072079;28;20186;-66
2021/01/25 01:00:10;;;;;;;10.27;6.60;;;;;;;2.63;55.37;94868.56;5074929;28;20569;-64
2021/01/25 01:02:36;;;;;;;11.70;7.47;;;;;;;2.63;55.30;94872.94;5078011;28;20242;-64
2021/01/25 01:05:04;;;;;;;11.90;6.80;;;;;;;2.52;55.42;94882.63;5072204;28;20519;-63
2021/01/25 01:07:29;;;;;;;18.17;7.07;;;;;;;2.47;55.60;94877.13;5066778;28;20445;-63
2021/01/25 01:09:55;;;;;;;14.80;7.57;;;;;;;2.50;55.89;94873.41;5065750;28;21044;-64
2021/01/25 01:12:21;;;;;;;13.50;7.57;;;;;;;2.55;55.92;94871.97;5067968;28;20183;-66
2021/01/25 01:14:46;;;;;;;14.80;6.90;;;;;;;2.65;55.56;94876.19;5086505;28;20182;-65
2021/01/25 01:17:12;;;;;;;12.47;7.63;;;;;;;2.56;55.59;94875.38;5087712;28;20209;-63
2021/01/25 01:19:38;;;;;;;8.30;6.20;;;;;;;2.61;56.04;94873.91;5073397;28;20178;-63
2021/01/25 01:22:03;;;;;;;11.83;6.90;;;;;;;2.63;55.86;94872.94;5064696;28;20723;-63
2021/01/25 01:24:29;;;;;;;12.93;7.53;;;;;;;2.69;55.56;94869.72;5071717;28;20174;-64
2021/01/25 01:26:55;;;;;;;9.50;6.80;;;;;;;2.63;55.79;94871.16;5072281;28;20198;-63
2021/01/25 01:29:20;;;;;;;15.53;6.90;;;;;;;2.66;55.98;94862.25;5071996;28;20213;-65
2021/01/25 01:31:46;;;;;;;11.20;6.40;;;;;;;2.54;56.04;94857.41;5066139;28;20217;-65
2021/01/25 01:34:12;;;;;;;10.47;6.20;;;;;;;2.60;55.85;94859.38;5072250;28;20563;-66
2021/01/25 01:36:37;;;;;;;14.80;6.80;;;;;;;2.18;56.16;94854.28;5075865;28;20202;-66
2021/01/25 01:39:03;;;;;;;9.30;7.00;;;;;;;2.44;55.84;94854.16;5068376;28;20252;-64
2021/01/25 01:41:39;;;;;;;18.57;7.23;;;;;;;2.27;56.29;94854.13;5065716;28;20197;-65
2021/01/25 01:44:08;;;;;;;12.50;7.47;;;;;;;2.37;56.30;94853.19;5061953;28;20491;-64
2021/01/25 01:46:35;;;;;;;10.83;6.97;;;;;;;2.38;55.97;94849.66;5070591;28;20448;-64
2021/01/25 01:49:02;;;;;;;17.27;7.07;;;;;;;2.41;55.83;94849.31;5071826;28;20492;-65
2021/01/25 01:51:28;;;;;;;10.07;6.73;;;;;;;2.40;55.83;94850.28;5072131;28;20475;-64
2021/01/25 01:53:53;;;;;;;17.83;7.60;;;;;;;2.48;55.92;94847.72;5071589;28;20432;-65
2021/01/25 01:56:19;;;;;;;8.77;6.40;;;;;;;2.37;56.19;94835.09;5066872;28;20203;-64
2021/01/25 01:58:45;;;;;;;14.53;7.77;;;;;;;2.49;56.28;94844.16;5058203;28;20213;-64
2021/01/25 02:01:11;;;;;;;10.60;7.00;;;;;;;2.53;55.93;94842.84;5072971;28;20443;-65
2021/01/25 02:03:37;;;;;;;12.20;7.00;;;;;;;2.49;55.64;94846.75;5075198;28;20541;-64
2021/01/25 02:06:05;;;;;;;13.00;6.97;;;;;;;2.40;56.39;94842.53;5075056;28;20205;-64
2021/01/25 02:08:31;;;;;;;10.67;6.97;;;;;;;2.41;56.32;94844.13;5066551;28;20449;-63
2021/01/25 02:10:57;;;;;;;10.03;7.07;;;;;;;2.49;56.22;94841.59;5070008;28;20508;-62
2021/01/25 02:13:23;;;;;;;12.97;7.57;;;;;;;2.59;56.20;94844.81;5075555;28;20519;-65
2021/01/25 02:15:49;;;;;;;15.43;7.87;;;;;;;2.66;56.36;94841.56;5075307;28;20815;-65
2021/01/25 02:18:15;;;;;;;10.17;7.20;;;;;;;2.63;56.35;94839.34;5065410;28;20417;-65
2021/01/25 02:20:42;;;;;;;9.83;7.17;;;;;;;2.67;56.09;94836.25;5074750;28;20429;-64
2021/01/25 02:23:23;;;;;;;10.93;6.90;;;;;;;2.59;56.14;94831.88;5073593;28;20197;-65
2021/01/25 02:26:07;;;;;;;12.97;7.33;;;;;;;2.66;56.22;94831.22;5075482;28;20450;-63
2021/01/25 02:28:35;;;;;;;10.20;7.83;;;;;;;2.69;56.19;94828.34;5075261;28;20547;-64
2021/01/25 02:31:03;;;;;;;8.30;6.70;;;;;;;2.76;56.16;94831.91;5075205;28;20466;-65
2021/01/25 02:33:31;;;;;;;11.17;7.20;;;;;;;2.82;55.98;94831.25;5075258;28;20480;-65
2021/01/25 02:35:58;;;;;;;13.90;7.37;;;;;;;2.79;56.13;94831.56;5072757;28;20436;-65
2021/01/25 02:38:25;;;;;;;9.40;7.03;;;;;;;2.76;56.25;94832.69;5047486;28;20432;-66
2021/01/25 02:40:52;;;;;;;11.03;7.40;;;;;;;2.74;56.37;94831.25;5073045;28;20434;-65
2021/01/25 02:43:18;;;;;;;14.40;7.73;;;;;;;2.78;56.62;94823.97;5066899;28;20523;-64
2021/01/25 02:45:44;;;;;;;16.20;7.70;;;;;;;2.70;56.61;94827.38;5058079;28;20520;-64
2021/01/25 02:48:10;;;;;;;10.63;7.20;;;;;;;2.84;56.55;94829.31;5059269;28;20209;-65
2021/01/25 02:50:36;;;;;;;9.40;6.90;;;;;;;2.88;56.45;94819.44;5077081;28;20446;-65
2021/01/25 02:53:02;;;;;;;9.90;6.83;;;;;;;2.83;56.46;94826.88;5076387;28;20560;-64
2021/01/25 02:55:27;;;;;;;11.93;7.33;;;;;;;2.82;56.28;94823.47;5074950;28;20668;-66
2021/01/25 02:57:55;;;;;;;12.77;6.93;;;;;;;2.75;56.55;94825.91;5073134;28;20842;-66
2021/01/25 03:00:21;;;;;;;11.13;6.90;;;;;;;2.82;56.29;94827.84;5074650;28;20664;-66
2021/01/25 03:02:47;;;;;;;10.90;6.87;;;;;;;2.75;56.28;94833.66;5075276;28;20433;-65
2021/01/25 03:05:13;;;;;;;9.20;6.33;;;;;;;2.80;56.87;94835.75;5075157;28;20521;-63
2021/01/25 03:07:38;;;;;;;13.87;6.10;;;;;;;2.86;56.98;94834.31;5067435;28;20548;-66
2021/01/25 03:10:05;;;;;;;7.63;5.50;;;;;;;2.95;56.87;94845.47;5073443;28;20186;-65
2021/01/25 03:12:31;;;;;;;8.40;5.87;;;;;;;2.90;58.10;94841.56;5069510;28;20183;-66
2021/01/25 03:14:57;;;;;;;9.33;5.50;;;;;;;2.49;59.88;94851.09;5061504;28;20919;-68
2021/01/25 03:17:23;;;;;;;10.13;5.03;;;;;;;2.68;60.02;94860.34;5073820;28;20451;-64
2021/01/25 03:19:49;;;;;;;6.20;4.50;;;;;;;2.56;60.45;94852.88;5073828;28;20416;-63
2021/01/25 03:22:14;;;;;;;5.60;4.60;;;;;;;2.53;61.52;94853.19;5074391;28;20182;-66
2021/01/25 03:24:40;;;;;;;7.13;4.37;;;;;;;2.29;63.29;94859.94;5074032;28;20205;-64
2021/01/25 03:27:06;;;;;;;8.73;4.93;;;;;;;2.20;63.65;94858.31;5073968;28;20232;-65
2021/01/25 03:29:33;;;;;;;7.13;4.63;;;;;;;2.35;63.74;94858.50;5072503;28;20209;-65
2021/01/25 03:31:59;;;;;;;8.57;4.63;;;;;;;2.05;65.00;94860.72;5073330;28;20448;-68
2021/01/25 03:34:25;;;;;;;6.47;5.10;;;;;;;2.14;65.11;94857.19;5073181;28;20959;-66
2021/01/25 03:36:50;;;;;;;7.83;5.13;;;;;;;2.42;65.02;94859.50;5070553;28;20523;-65
2021/01/25 03:39:16;;;;;;;8.20;4.77;;;;;;;2.57;63.91;94853.72;5064633;28;20470;-64
2021/01/25 03:41:42;;;;;;;8.23;4.70;;;;;;;2.60;64.00;94856.78;5064698;28;20304;-64
2021/01/25 03:44:07;;;;;;;7.80;5.23;;;;;;;2.46;64.64;94854.81;5073470;28;20673;-64
2021/01/25 03:46:33;;;;;;;5.20;4.10;;;;;;;2.49;64.33;94853.69;5073857;28;20556;-65
2021/01/25 03:48:59;;;;;;;6.87;5.00;;;;;;;2.53;64.44;94855.78;5072450;28;20207;-67
2021/01/25 03:51:25;;;;;;;4.63;4.10;;;;;;;2.66;64.01;94862.25;5071842;28;20201;-64
2021/01/25 03:53:50;;;;;;;13.37;4.40;;;;;;;2.74;64.23;94854.53;5073502;28;20193;-65
2021/01/25 03:56:16;;;;;;;8.77;4.97;;;;;;;2.70;63.91;94850.63;5060530;28;20241;-64
2021/01/25 03:58:42;;;;;;;5.40;4.00;;;;;;;2.79;64.18;94846.28;5070051;28;20331;-66
2021/01/25 04:01:08;;;;;;;5.30;3.80;;;;;;;2.81;64.03;94847.72;5069976;28;20785;-62
2021/01/25 04:03:34;;;;;;;5.13;4.23;;;;;;;2.87;63.99;94852.28;5068883;28;20432;-65
2021/01/25 04:06:00;;;;;;;5.47;4.27;;;;;;;2.81;63.71;94857.28;5074035;28;20202;-65
2021/01/25 04:08:25;;;;;;;6.67;3.97;;;;;;;2.81;63.73;94859.88;5064657;28;20194;-65
2021/01/25 04:10:51;;;;;;;4.97;4.23;;;;;;;2.69;63.87;94861.94;5072669;28;20191;-62
2021/01/25 04:13:17;;;;;;;8.17;4.13;;;;;;;2.59;64.24;94862.91;5072763;28;20179;-63
2021/01/25 04:15:42;;;;;;;4.63;3.70;;;;;;;2.59;64.39;94869.84;5061865;28;20203;-64
2021/01/25 04:18:08;;;;;;;6.00;4.43;;;;;;;2.63;64.11;94868.56;5052983;28;20183;-63
2021/01/25 04:20:34;;;;;;;6.40;4.30;;;;;;;2.68;64.36;94865.50;5064642;28;20183;-63
2021/01/25 04:23:00;;;;;;;10.87;4.57;;;;;;;2.63;64.19;94865.19;5075159;28;20429;-65
2021/01/25 04:25:26;;;;;;;5.43;4.83;;;;;;;2.66;63.99;94865.69;5071317;28;20189;-65
2021/01/25 04:27:51;;;;;;;6.80;4.40;;;;;;;2.62;64.18;94866.97;5049409;28;20180;-65
2021/01/25 04:30:18;;;;;;;7.63;4.70;;;;;;;2.65;64.41;94863.25;5073918;28;20413;-65
2021/01/25 04:32:43;;;;;;;5.10;4.40;;;;;;;2.54;64.76;94865.16;5063628;28;20565;-65
2021/01/25 04:35:11;;;;;;;5.20;4.20;;;;;;;2.49;65.20;94859.69;5073833;28;20429;-64
2021/01/25 04:37:38;;;;;;;7.07;4.67;;;;;;;2.54;65.11;94861.78;5060501;28;20260;-66
2021/01/25 04:40:08;;;;;;;6.40;4.27;;;;;;;2.44;65.38;94859.34;5061934;28;20421;-64
2021/01/25 04:42:34;;;;;;;5.83;4.53;;;;;;;2.56;64.88;94863.22;5060567;28;20442;-65
2021/01/25 04:45:10;;;;;;;6.00;4.47;;;;;;;2.57;64.91;94858.88;5110226;27;20519;-66
2021/01/25 04:47:38;;;;;;;7.20;5.03;;;;;;;2.67;64.97;94863.88;5110481;28;20439;-63
2021/01/25 04:50:04;;;;;;;8.40;5.60;;;;;;;2.68;64.85;94871.50;5110428;28;20805;-65
2021/01/25 04:52:30;;;;;;;7.90;5.03;;;;;;;2.72;64.62;94866.81;5110017;28;20427;-65
2021/01/25 04:54:56;;;;;;;5.43;4.27;;;;;;;2.79;64.57;94867.78;5109954;28;20419;-66
2021/01/25 04:57:22;;;;;;;7.70;4.90;;;;;;;2.85;64.71;94861.16;5108866;28;20205;-65
2021/01/25 04:59:48;;;;;;;11.23;6.80;;;;;;;2.86;64.53;94863.59;5109083;28;20487;-64
2021/01/25 05:02:13;;;;;;;9.23;6.23;;;;;;;2.79;64.66;94866.97;5109855;28;20181;-64
2021/01/25 05:04:40;;;;;;;10.37;5.00;;;;;;;2.74;65.08;94870.06;5104178;28;20201;-64
2021/01/25 05:07:06;;;;;;;7.53;5.50;;;;;;;2.67;65.28;94871.66;5108218;28;20201;-64
2021/01/25 05:09:32;;;;;;;7.00;5.20;;;;;;;2.73;65.37;94871.81;5107492;28;20811;-64
2021/01/25 05:12:03;;;;;;;5.60;4.80;;;;;;;2.75;65.03;94869.88;5105206;28;20419;-64
2021/01/25 05:14:42;;;;;;;10.23;5.70;;;;;;;2.80;65.44;94866.00;5109892;28;20511;-63
2021/01/25 05:17:11;;;;;;;5.83;3.90;;;;;;;2.89;65.09;94873.63;5107941;28;20434;-63
2021/01/25 05:19:38;;;;;;;6.30;4.90;;;;;;;2.88;64.76;94874.59;5109007;28;20423;-66
2021/01/25 05:22:20;;;;;;;9.17;4.43;;;;;;;2.94;64.79;94874.91;5103097;28;20434;-65
2021/01/25 05:24:50;;;;;;;6.10;4.90;;;;;;;2.98;64.88;94868.44;5109499;28;20443;-65
2021/01/25 05:27:29;;;;;;;6.23;4.80;;;;;;;2.91;64.98;94879.41;5108892;28;20964;-63
2021/01/25 05:30:06;;;;;;;5.47;4.53;;;;;;;2.95;64.81;94872.16;5110012;28;20426;-65
2021/01/25 05:32:32;;;;;;;8.30;4.87;;;;;;;3.03;64.97;94879.09;5109772;28;20411;-64
2021/01/25 05:35:04;;;;;;;8.70;5.40;;;;;;;2.89;64.75;94878.78;5108786;28;20491;-65
2021/01/25 05:37:30;;;;;;;8.43;4.67;;;;;;;2.85;64.98;94882.66;5108151;28;20667;-66
2021/01/25 05:39:56;;;;;;;6.50;4.33;;;;;;;2.83;64.86;94884.59;5109076;28;20423;-64
2021/01/25 05:42:31;;;;;;;5.83;4.60;;;;;;;2.89;65.19;94883.97;5107317;28;20264;-65
2021/01/25 05:45:04;;;;;;;9.20;4.97;;;;;;;2.98;64.95;94881.38;5108360;28;20376;-66
2021/01/25 05:47:29;;;;;;;9.27;5.73;;;;;;;3.00;65.02;94884.63;5109617;28;20439;-65
2021/01/25 05:49:55;;;;;;;8.27;5.43;;;;;;;3.02;64.88;94893.03;5109174;28;20434;-64
2021/01/25 05:52:21;;;;;;;7.63;5.20;;;;;;;3.05;65.01;94892.69;5109626;28;20181;-65
2021/01/25 05:54:46;;;;;;;7.93;4.93;;;;;;;3.06;64.49;94889.13;5105425;28;20240;-64
2021/01/25 05:57:12;;;;;;;7.33;4.50;;;;;;;3.09;64.71;94888.81;5095009;28;20196;-64
2021/01/25 05:59:38;;;;;;;11.87;5.20;;;;;;;3.07;64.49;94888.16;5095033;28;20174;-64
2021/01/25 06:02:03;;;;;;;11.87;7.03;;;;;;;3.06;64.82;94900.31;5095934;28;20192;-64
2021/01/25 06:04:30;;;;;;;7.93;5.03;;;;;;;2.94;64.47;94903.34;5095368;28;20194;-64
2021/01/25 06:07:05;;;;;;;10.07;5.50;;;;;;;2.95;64.77;94898.03;5095625;28;20220;-65
2021/01/25 06:09:52;;;;;;;9.50;4.60;;;;;;;2.90;64.73;94900.28;5095560;28;20497;-64
2021/01/25 06:12:26;;;;;;;7.20;5.00;;;;;;;2.88;64.46;94897.06;5095768;28;20916;-63
2021/01/25 06:15:03;;;;;;;7.57;4.83;;;;;;;2.90;64.58;94908.06;5094242;28;20419;-63
2021/01/25 06:17:33;;;;;;;7.50;4.70;;;;;;;2.89;64.33;94901.25;5094684;28;20455;-66
2021/01/25 06:20:02;;;;;;;8.90;4.87;;;;;;;2.79;64.57;94909.16;5094763;28;20420;-65
2021/01/25 06:22:28;;;;;;;10.90;4.63;;;;;;;2.75;64.83;94913.84;5095046;28;20419;-64
2021/01/25 06:24:54;;;;;;;9.53;5.87;;;;;;;2.69;65.14;94909.34;5095393;28;20490;-64
2021/01/25 06:27:22;;;;;;;10.67;5.33;;;;;;;2.71;64.75;94911.75;5092199;28;20483;-65
2021/01/25 06:29:51;;;;;;;8.40;5.10;;;;;;;2.72;64.88;94914.16;5095104;28;20431;-65
2021/01/25 06:32:16;;;;;;;8.73;5.03;;;;;;;2.78;65.01;94923.06;5095259;28;20458;-64
2021/01/25 06:34:43;;;;;;;9.33;6.03;;;;;;;2.80;65.05;94922.91;5093791;28;20420;-64
2021/01/25 06:37:09;;;;;;;13.03;6.13;;;;;;;2.86;64.91;94920.50;5084118;28;20339;-65
2021/01/25 06:39:43;;;;;;;11.03;5.83;;;;;;;2.84;64.87;94922.44;5086956;28;20761;-65
2021/01/25 06:42:14;;;;;;;8.43;5.50;;;;;;;2.87;65.36;94935.06;5087086;28;20890;-67
2021/01/25 06:44:40;;;;;;;12.77;6.13;;;;;;;2.89;65.26;94935.72;5094957;28;20463;-65
2021/01/25 06:47:06;;;;;;;9.60;5.10;;;;;;;2.94;65.31;94944.75;5091114;28;20822;-65
2021/01/25 06:49:33;;;;;;;9.93;5.83;;;;;;;2.89;65.66;94943.47;5089514;28;20427;-64
2021/01/25 06:51:59;;;;;;;11.17;6.83;;;;;;;3.02;65.53;94939.59;5086110;28;20412;-65
2021/01/25 06:54:26;;;;;;;9.57;5.77;;;;;;;3.05;65.25;94945.25;5093342;28;20426;-64
2021/01/25 06:56:59;;;;;;;8.97;5.63;;;;;;;3.15;65.00;94939.91;5085875;28;20460;-65
2021/01/25 06:59:27;;;;;;;7.90;5.70;;;;;;;3.20;64.93;94948.00;5094845;28;20435;-64
2021/01/25 07:01:53;;;;;;;14.23;6.10;;;;;;;3.26;65.14;94951.72;5093760;28;20416;-64
2021/01/25 07:04:24;;;;;;;8.67;5.53;;;;;;;3.31;64.73;94961.59;5094192;28;20451;-65
2021/01/25 07:06:51;;;;;;;10.10;6.30;;;;;;;3.25;64.32;94962.25;5091616;28;20447;-65
2021/01/25 07:09:25;;;;;;;11.70;6.07;;;;;;;3.28;64.60;94961.91;5079225;28;20424;-63
2021/01/25 07:11:51;;;;;;;9.50;5.63;;;;;;;3.31;64.41;94964.19;5088308;28;20439;-63
2021/01/25 07:14:20;;;;;;;12.87;6.57;;;;;;;3.32;64.65;94971.81;5086213;28;21018;-63
2021/01/25 07:16:47;;;;;;;12.07;5.63;;;;;;;3.29;64.54;94974.72;5085571;28;20437;-66
2021/01/25 07:19:13;;;;;;;9.10;5.70;;;;;;;3.30;64.53;94978.09;5089095;28;20413;-64
2021/01/25 07:21:39;;;;;;;11.40;6.13;;;;;;;3.31;64.29;94977.97;5086852;28;20469;-64
2021/01/25 07:24:05;;;;;;;9.60;5.87;;;;;;;3.30;64.47;94980.69;5085769;28;20228;-65
2021/01/25 07:26:38;;;;;;;10.00;5.10;;;;;;;3.30;64.50;94984.09;5093226;28;20485;-65
2021/01/25 07:29:10;;;;;;;15.37;7.97;;;;;;;3.28;64.51;94987.81;5090861;28;20425;-65
2021/01/25 07:31:36;;;;;;;20.23;9.00;;;;;;;3.36;64.14;94990.41;5089130;28;20934;-66
2021/01/25 07:34:02;;;;;;;8.10;6.43;;;;;;;3.23;64.33;94988.28;5085293;28;20506;-65
2021/01/25 07:36:31;;;;;;;9.23;6.40;;;;;;;2.63;66.43;94997.09;5085463;28;21101;-66
2021/01/25 07:38:56;;;;;;;11.77;5.63;;;;;;;2.56;66.67;95000.28;5083643;28;20233;-64
2021/01/25 07:41:22;;;;;;;14.00;7.10;;;;;;;2.28;67.96;94997.91;5087335;28;20427;-64
2021/01/25 07:43:49;;;;;;;11.33;6.77;;;;;;;2.72;66.91;95006.50;5089495;28;20197;-67
2021/01/25 07:46:14;;;;;;;9.33;6.47;;;;;;;2.71;66.76;95005.66;5090205;28;20205;-67
2021/01/25 07:48:50;;;;;;;7.90;6.10;;;;;;;2.83;66.63;95008.78;5093021;28;20465;-66
2021/01/25 07:51:20;;;;;;;11.17;7.27;;;;;;;2.99;66.56;95014.97;5085373;28;20185;-66
2021/01/25 07:53:46;;;;;;;9.33;6.43;;;;;;;3.15;65.79;95016.75;5092463;28;20404;-67
2021/01/25 07:56:17;;;;;;;10.93;6.40;;;;;;;2.94;67.13;95020.63;5091389;28;20451;-67
2021/01/25 07:58:42;;;;;;;16.27;7.10;;;;;;;3.25;66.29;95026.97;5092167;28;20424;-66
2021/01/25 08:01:14;;;;;;;17.40;7.30;;;;;;;3.30;66.24;95025.53;5089103;28;20417;-67
2021/01/25 08:03:42;;;;;;;10.50;8.23;;;;;;;3.23;66.37;95025.34;5089349;28;20500;-66
2021/01/25 08:06:08;;;;;;;12.43;7.33;;;;;;;3.17;66.60;95027.78;5087325;28;20441;-65
2021/01/25 08:08:34;;;;;;;15.07;6.63;;;;;;;2.82;67.42;95033.03;5087489;28;20420;-66
2021/01/25 08:11:00;;;;;;;9.27;7.07;;;;;;;3.09;67.07;95041.50;5090015;28;20781;-66
2021/01/25 08:13:42;;;;;;;11.30;7.37;;;;;;;3.22;66.34;95041.84;5091363;28;20412;-66
2021/01/25 08:16:15;;;;;;;9.93;6.50;;;;;;;3.27;66.45;95043.97;5090721;28;20466;-67
2021/01/25 08:18:49;;;;;;;12.17;6.43;;;;;;;3.13;67.33;95050.59;5092202;28;20438;-67
2021/01/25 08:21:19;;;;;;;11.93;7.67;;;;;;;3.40;66.78;95040.91;5090899;28;20499;-69
2021/01/25 08:23:47;;;;;;;10.87;6.33;;;;;;;3.28;67.07;95042.16;5091864;28;20950;-68
2021/01/25 08:26:13;;;;;;;11.40;7.07;;;;;;;3.29;66.49;95057.56;5090351;28;20482;-67
2021/01/25 08:28:45;;;;;;;11.00;6.50;;;;;;;3.10;66.71;95060.41;5090377;28;20759;-65
2021/01/25 08:31:16;;;;;;;8.90;5.73;;;;;;;3.10;67.50;95060.41;5083630;28;20185;-66
2021/01/25 08:33:56;;;;;;;12.43;6.83;;;;;;;3.25;67.42;95064.03;5091747;28;20418;-67
2021/01/25 08:36:37;;;;;;;13.57;6.70;;;;;;;3.05;68.11;95068.66;5084874;28;20564;-68
2021/01/25 08:39:10;;;;;;;11.97;6.83;;;;;;;3.66;66.59;95060.66;5090570;28;20434;-67
2021/01/25 08:41:36;;;;;;;10.40;7.30;;;;;;;3.59;66.34;95070.84;5090357;28;20427;-67
2021/01/25 08:44:14;;;;;;;11.10;6.70;;;;;;;3.64;66.56;95065.22;5072522;28;20506;-67
2021/01/25 08:46:40;;;;;;;10.00;5.93;;;;;;;3.76;65.54;95074.28;5073396;28;20470;-66
2021/01/25 08:49:17;;;;;;;16.13;7.07;;;;;;;3.79;65.36;95067.97;5089381;28;20902;-67
2021/01/25 08:52:00;;;;;;;11.67;7.30;;;;;;;4.12;64.70;95075.69;5092345;28;20432;-68
2021/01/25 08:54:31;;;;;;;13.80;7.33;;;;;;;4.06;64.90;95082.34;5085906;28;20420;-67
2021/01/25 08:56:58;;;;;;;17.13;6.30;;;;;;;3.94;65.07;95083.66;5091637;28;20431;-68
2021/01/25 08:59:37;;;;;;;10.20;6.27;;;;;;;4.04;65.12;95092.06;5070512;28;20424;-69
2021/01/25 09:02:18;;;;;;;18.90;5.40;;;;;;;4.36;64.74;95087.81;5091018;28;20830;-66
2021/01/25 09:04:44;;;;;;;13.13;5.60;;;;;;;3.92;65.40;95090.78;5090380;28;20817;-70
2021/01/25 09:07:15;;;;;;;13.23;5.50;;;;;;;4.19;64.71;95094.81;5084365;28;20446;-67
2021/01/25 09:09:41;;;;;;;11.67;6.10;;;;;;;4.48;64.40;95090.88;5092380;28;20450;-68
2021/01/25 09:12:08;;;;;;;12.17;6.03;;;;;;;4.59;63.30;95102.69;5092419;28;20430;-68
2021/01/25 09:14:34;;;;;;;6.00;4.83;;;;;;;4.30;63.50;95104.84;5091625;28;20442;-69
2021/01/25 09:17:00;;;;;;;9.80;4.53;;;;;;;3.97;63.77;95115.22;5086043;28;20495;-66
2021/01/25 09:19:26;;;;;;;12.63;5.80;;;;;;;4.11;64.75;95118.97;5091954;28;20535;-66
2021/01/25 09:21:51;;;;;;;10.87;5.30;;;;;;;4.10;64.12;95114.75;5091131;28;20186;-67
2021/01/25 09:24:17;;;;;;;12.33;4.70;;;;;;;4.48;63.51;95116.00;5091111;28;20229;-67
2021/01/25 09:26:43;;;;;;;5.43;4.67;;;;;;;4.61;63.97;95122.28;5091140;28;20616;-69
2021/01/25 09:29:08;;;;;;;6.20;4.70;;;;;;;4.92;62.79;95129.34;5091418;28;20186;-69
2021/01/25 09:31:34;;;;;;;4.47;3.83;;;;;;;4.80;62.45;95135.06;5095603;28;20698;-68
2021/01/25 09:34:00;;;;;;;5.83;4.73;;;;;;;4.44;63.47;95139.69;5096472;28;20524;-68
2021/01/25 09:36:26;;;;;;;8.03;4.90;;;;;;;4.49;63.95;95143.56;5094227;28;20447;-68
2021/01/25 09:38:52;;;;;;;5.47;4.20;;;;;;;4.56;63.20;95141.91;5094987;28;20178;-69
2021/01/25 09:41:17;;;;;;;5.40;4.20;;;;;;;4.38;65.02;95150.72;5092974;28;20585;-67
2021/01/25 09:43:44;;;;;;;7.67;4.77;;;;;;;4.36;64.49;95155.25;5090865;28;20239;-70
2021/01/25 09:46:09;;;;;;;10.60;4.53;;;;;;;4.46;63.94;95155.09;5085337;28;20340;-67
2021/01/25 09:48:35;;;;;;;9.53;5.07;;;;;;;4.25;64.94;95164.16;5094997;28;20444;-66
2021/01/25 09:51:01;;;;;;;8.90;5.00;;;;;;;4.57;63.61;95164.31;5092755;28;20438;-66
2021/01/25 09:53:27;;;;;;;10.93;5.53;;;;;;;4.44;64.19;95167.41;5094798;28;20637;-65
2021/01/25 09:55:55;;;;;;;6.70;4.87;;;;;;;4.39;64.46;95167.91;5093929;28;20196;-69
2021/01/25 09:58:20;;;;;;;7.93;5.03;;;;;;;4.00;65.98;95179.72;5094547;28;20184;-68
2021/01/25 10:00:46;;;;;;;11.57;6.07;;;;;;;4.01;65.20;95177.94;5093521;28;20424;-67
2021/01/25 10:03:12;;;;;;;6.30;4.43;;;;;;;4.05;65.51;95175.84;5094574;28;20194;-68
2021/01/25 10:05:37;;;;;;;9.43;4.97;;;;;;;4.13;65.65;95184.44;5095664;28;20340;-68
2021/01/25 10:08:03;;;;;;;10.10;5.00;;;;;;;4.16;65.79;95188.47;5097079;28;20209;-66
2021/01/25 10:10:29;;;;;;;10.83;6.00;;;;;;;4.51;64.55;95183.13;5097415;28;20182;-69
2021/01/25 10:12:55;;;;;;;10.80;5.40;;;;;;;4.03;65.81;95195.94;5095018;28;20411;-67
2021/01/25 10:15:22;;;;;;;9.07;5.83;;;;;;;4.51;64.28;95193.50;5094489;28;20174;-65
2021/01/25 10:17:47;;;;;;;5.50;4.80;;;;;;;4.54;64.00;95193.97;5095976;28;20454;-69
2021/01/25 10:20:14;;;;;;;8.17;4.97;;;;;;;4.53;63.44;95188.97;5096375;28;20907;-67
2021/01/25 10:22:40;;;;;;;7.20;4.53;;;;;;;4.51;64.27;95203.88;5097640;28;20681;-67
2021/01/25 10:25:07;;;;;;;9.07;4.70;;;;;;;4.31;64.62;95211.97;5094162;28;20439;-67
2021/01/25 10:27:34;;;;;;;6.90;4.83;;;;;;;4.67;63.19;95211.63;5093204;28;20467;-67
2021/01/25 10:30:00;;;;;;;6.37;4.73;;;;;;;4.37;64.29;95211.34;5094273;28;20454;-67
2021/01/25 10:32:26;;;;;;;7.13;4.73;;;;;;;4.18;65.17;95220.25;5094217;28;20422;-69
2021/01/25 10:34:52;;;;;;;9.37;4.93;;;;;;;3.83;66.19;95224.75;5093672;28;20462;-67
2021/01/25 10:37:17;;;;;;;9.00;6.13;;;;;;;3.88;67.21;95224.25;5093556;28;20217;-67
2021/01/25 10:39:43;;;;;;;5.90;5.30;;;;;;;4.51;65.48;95224.63;5092252;28;20310;-67
2021/01/25 10:42:09;;;;;;;9.00;5.90;;;;;;;4.60;65.76;95221.84;5093930;28;20177;-68
2021/01/25 10:44:35;;;;;;;12.10;6.53;;;;;;;4.90;64.09;95226.53;5092260;28;20193;-67
2021/01/25 10:47:00;;;;;;;8.60;5.80;;;;;;;4.91;63.61;95222.97;5093135;28;20474;-69
2021/01/25 10:49:26;;;;;;;10.90;5.30;;;;;;;5.25;63.01;95226.28;5092764;28;20292;-67
2021/01/25 10:51:52;;;;;;;8.73;4.97;;;;;;;4.32;65.24;95231.75;5093802;28;20254;-67
2021/01/25 10:54:22;;;;;;;10.17;4.37;;;;;;;3.86;67.01;95239.16;5092988;28;20202;-69
2021/01/25 10:56:49;;;;;;;9.17;4.53;;;;;;;4.35;65.39;95233.25;5092297;28;20756;-67
2021/01/25 10:59:15;;;;;;;11.07;4.40;;;;;;;4.38;65.21;95240.66;5089706;28;20646;-67
2021/01/25 11:01:40;;;;;;;4.20;3.80;;;;;;;4.58;64.05;95236.78;5068206;28;20469;-67
2021/01/25 11:04:06;;;;;;;13.63;4.00;;;;;;;3.66;66.28;95237.66;5092550;28;20498;-69
2021/01/25 11:06:32;;;;;;;6.60;3.73;;;;;;;3.73;66.73;95252.53;5094622;28;20288;-68
2021/01/25 11:08:57;;;;;;;8.33;3.33;;;;;;;4.12;65.73;95237.25;5102096;28;20241;-69
2021/01/25 11:11:23;;;;;;;4.60;4.00;;;;;;;3.97;66.77;95249.22;5104495;28;20173;-68
2021/01/25 11:13:52;;;;;;;8.03;3.70;;;;;;;3.57;68.11;95253.31;5094222;28;20181;-67
2021/01/25 11:16:18;;;;;;;6.17;3.60;;;;;;;4.13;66.36;95254.44;5093276;28;20443;-69
2021/01/25 11:18:43;;;;;;;14.73;4.77;;;;;;;4.06;67.23;95257.81;5091767;28;20191;-69
2021/01/25 11:21:09;;;;;;;6.57;4.40;;;;;;;3.95;67.83;95256.34;5088343;28;20177;-67
2021/01/25 11:23:35;;;;;;;5.13;4.03;;;;;;;4.35;66.98;95262.56;5092208;28;20238;-66
2021/01/25 11:26:00;;;;;;;11.83;4.80;;;;;;;4.87;64.71;95255.41;5090106;28;20209;-69
2021/01/25 11:28:26;;;;;;;5.33;3.83;;;;;;;4.69;64.42;95259.00;5092696;28;20321;-69
2021/01/25 11:30:52;;;;;;;5.13;4.00;;;;;;;4.83;64.74;95264.50;5089733;28;20599;-67
2021/01/25 11:33:17;;;;;;;7.87;4.00;;;;;;;5.10;64.11;95273.72;5088242;28;20180;-67
2021/01/25 11:35:43;;;;;;;5.60;4.60;;;;;;;5.08;63.64;95268.69;5092219;28;20598;-67
2021/01/25 11:38:09;;;;;;;10.57;4.23;;;;;;;5.37;63.67;95272.50;5088111;28;20181;-66